📊 Raw Sensor Data
Showing records 46976 to 47000 of 85,079 total
| ID | Distance (ft) | Battery V | Battery A | Int Temp (°F) | Int Humid (%) | Ext Temp (°F) | Solar V | RSSI | SNR | Time Stamp |
|---|---|---|---|---|---|---|---|---|---|---|
| 38116 | 15.2 | 3.91 | -5 | 50 | 42 | 52 | 0.00 | -86 | 7 | 04/18/2025 12:15 AM |
| 38115 | 15.2 | 3.86 | -5 | 50 | 42 | 52 | 0.10 | -90 | 7 | 04/18/2025 12:00 AM |
| 38114 | 15.2 | 3.85 | -5 | 51 | 42 | 52 | 0.00 | -84 | 8 | 04/17/2025 11:45 PM |
| 38113 | 15.3 | 3.86 | -5 | 51 | 42 | 52 | 0.00 | -85 | 8 | 04/17/2025 11:30 PM |
| 38112 | -- | 3.91 | -5 | 52 | 42 | 53 | 0.00 | -90 | 7 | 04/17/2025 11:15 PM |
| 38111 | 15.3 | 3.86 | -5 | 52 | 43 | 53 | 0.00 | -83 | 7 | 04/17/2025 11:00 PM |
| 38110 | 15.3 | 3.86 | -5 | 52 | 43 | 53 | 0.00 | -88 | 8 | 04/17/2025 10:45 PM |
| 38109 | -- | 3.91 | -5 | 52 | 43 | 54 | 0.00 | -85 | 9 | 04/17/2025 10:30 PM |
| 38108 | -- | 3.86 | -5 | 53 | 43 | 54 | 0.00 | -85 | 8 | 04/17/2025 10:15 PM |
| 38107 | -- | 3.86 | -5 | 53 | 44 | 54 | 0.00 | -84 | 7 | 04/17/2025 10:00 PM |
| 38106 | -- | 3.86 | -5 | 53 | 44 | 54 | 0.00 | -87 | 8 | 04/17/2025 09:45 PM |
| 38105 | -- | 3.91 | -5 | 54 | 45 | 55 | 0.10 | -81 | 7 | 04/17/2025 09:30 PM |
| 38104 | -- | 3.86 | -5 | 54 | 45 | 55 | 0.00 | -86 | 7 | 04/17/2025 09:15 PM |
| 38103 | -- | 3.86 | -5 | 55 | 46 | 56 | 0.00 | -87 | 8 | 04/17/2025 09:00 PM |
| 38102 | -- | 3.86 | -5 | 56 | 47 | 56 | 0.00 | -87 | 8 | 04/17/2025 08:45 PM |
| 38101 | -- | 3.86 | -5 | 56 | 48 | 57 | 0.00 | -87 | 7 | 04/17/2025 08:30 PM |
| 38100 | -- | 3.86 | -5 | 58 | 50 | 57 | 0.00 | -86 | 8 | 04/17/2025 08:15 PM |
| 38099 | -- | 3.85 | -10 | 62 | 52 | 60 | 3.20 | -89 | 6 | 04/17/2025 07:45 PM |
| 38098 | -- | 3.87 | 0 | 67 | 51 | 63 | 4.50 | -94 | 4 | 04/17/2025 07:30 PM |
| 38097 | -- | 3.94 | 5 | 71 | 50 | 65 | 4.50 | -92 | 6 | 04/17/2025 07:15 PM |
| 38096 | 15.4 | 3.96 | 0 | 75 | 49 | 67 | 4.50 | -98 | 6 | 04/17/2025 07:00 PM |
| 38095 | -- | 3.93 | 21 | 78 | 47 | 68 | 4.60 | -93 | 6 | 04/17/2025 06:45 PM |
| 38094 | -- | 4.00 | 29 | 80 | 46 | 75 | 4.50 | -97 | 6 | 04/17/2025 06:30 PM |
| 38093 | -- | 3.96 | 5 | 80 | 46 | 76 | 5.10 | -93 | 5 | 04/17/2025 06:16 PM |
| 38092 | -- | 3.91 | 0 | 81 | 45 | 74 | 5.10 | -99 | 5 | 04/17/2025 06:01 PM |